Ana Sayfa
METAR-TAF:

METAR-TAF

Havaalanları :

Haikou Meilan Uluslararası Havalimanı

Haikou, Çin

Enlem: 19-56-05N, Boylam: 110-27-32E, yükseklik: 23 m

Güncel hava durumu gözlemi

Rapor saat 11:00 UTC de 50 dakika önce yapıldı.
Rüzgar güneydoğudan 6 kt
Sıcaklık 32°C
Nem 79%
Basınç 1003 hPa
Görüş mesafesi 10 km veya daha fazla
2300 ft yükseklikte parçalı bulutlu

METAR: ZJHK 161100Z 13003MPS 9999 SCT023 32/28 Q1003 NOSIG

Saat: 19:50 (11:50 UTC)

Tahmin

Rapor saat 10:46 UTC de 1 saat ve 4 dakika önce yapıldı.
Ayın 16'si saat 06 UTC'den ayın 17'si saat 06 UTC'ye kadar geçerli Tahmin
Rüzgar güneydan 8 kt
Görüş mesafesi 10 km veya daha fazla
2000 ft yükseklikte parçalı bulutlu
Geçici
ayın 16'si saat 07 UTC'den ayın 16'si saat 10 UTC'ye kadar
2000 ft yükseklikte parçalı bulutlu
2300 ft yükseklikte az bulutlu, Kümülonimbus.

TAF: ZJHK 161046Z 1606/1706 17004MPS 9999 SCT020 TX37/1607Z TN27/1618Z TEMPO 1607/1610 SCT020 FEW023CB

4.000'den fazla havaalanı için hava durumu gözlemleri ve tahminleri (METAR ve TAF raporları).

Kullanılabilir istasyonlar harita üzerinde sarı ve kırmızı noktalarla gösterilir.

İstasyonun adını görmek için fareyi noktanın üzerinde gezdirin.

Sonrasında hava gözlem ve tahminlerini görmek için tıklayın.

Haritayı değiştirmek için: yaklaştırmak için siyah artı işaretli yeşil düğmeye ve uzaklaştırmak için de eksi işaretli düğmeye hızla tıklayın; bitişik haritalar için yeşil okları kullanın.


METAR-TAF: